sensor_id;sensor_type;location;lat;lon;timestamp;P1;durP1;ratioP1;P2;durP2;ratioP2
1925;SDS011;964;42.606;23.588;2023-04-03T00:00:18;8.93;;;4.57;;
1925;SDS011;964;42.606;23.588;2023-04-03T00:02:45;9.03;;;5.03;;
1925;SDS011;964;42.606;23.588;2023-04-03T00:05:12;11.47;;;5.87;;
1925;SDS011;964;42.606;23.588;2023-04-03T00:07:38;9.83;;;5.07;;
1925;SDS011;964;42.606;23.588;2023-04-03T00:10:07;4.87;;;4.07;;
1925;SDS011;964;42.606;23.588;2023-04-03T00:12:35;7.60;;;4.53;;
1925;SDS011;964;42.606;23.588;2023-04-03T00:15:01;7.40;;;3.80;;
1925;SDS011;964;42.606;23.588;2023-04-03T00:17:28;6.70;;;3.63;;
1925;SDS011;964;42.606;23.588;2023-04-03T00:19:55;14.43;;;6.40;;
1925;SDS011;964;42.606;23.588;2023-04-03T00:22:22;6.23;;;3.60;;
1925;SDS011;964;42.606;23.588;2023-04-03T00:24:48;5.23;;;4.10;;
1925;SDS011;964;42.606;23.588;2023-04-03T00:27:19;7.20;;;4.30;;
1925;SDS011;964;42.606;23.588;2023-04-03T00:29:46;5.57;;;4.23;;
1925;SDS011;964;42.606;23.588;2023-04-03T00:32:12;7.47;;;4.23;;
1925;SDS011;964;42.606;23.588;2023-04-03T00:34:39;10.13;;;5.17;;
1925;SDS011;964;42.606;23.588;2023-04-03T00:37:06;6.83;;;4.47;;
1925;SDS011;964;42.606;23.588;2023-04-03T00:39:32;5.70;;;3.97;;
1925;SDS011;964;42.606;23.588;2023-04-03T00:41:59;9.30;;;3.93;;
1925;SDS011;964;42.606;23.588;2023-04-03T00:47:33;5.20;;;4.20;;
1925;SDS011;964;42.606;23.588;2023-04-03T00:50:00;7.50;;;5.13;;
1925;SDS011;964;42.606;23.588;2023-04-03T00:52:28;8.15;;;5.70;;
1925;SDS011;964;42.606;23.588;2023-04-03T00:54:58;12.63;;;5.87;;
1925;SDS011;964;42.606;23.588;2023-04-03T00:57:28;14.60;;;8.10;;
1925;SDS011;964;42.606;23.588;2023-04-03T00:59:57;13.23;;;8.67;;
1925;SDS011;964;42.606;23.588;2023-04-03T01:02:28;9.40;;;6.30;;
1925;SDS011;964;42.606;23.588;2023-04-03T01:04:56;7.57;;;5.90;;
1925;SDS011;964;42.606;23.588;2023-04-03T01:07:23;9.30;;;5.47;;
1925;SDS011;964;42.606;23.588;2023-04-03T01:09:53;8.10;;;4.67;;
1925;SDS011;964;42.606;23.588;2023-04-03T01:12:24;6.80;;;4.57;;
1925;SDS011;964;42.606;23.588;2023-04-03T01:14:53;7.73;;;5.40;;
1925;SDS011;964;42.606;23.588;2023-04-03T01:17:31;10.90;;;6.53;;
1925;SDS011;964;42.606;23.588;2023-04-03T01:23:05;10.68;;;6.65;;
1925;SDS011;964;42.606;23.588;2023-04-03T01:25:39;9.33;;;5.30;;
1925;SDS011;964;42.606;23.588;2023-04-03T01:28:07;10.43;;;4.77;;
1925;SDS011;964;42.606;23.588;2023-04-03T01:30:38;9.30;;;5.27;;
1925;SDS011;964;42.606;23.588;2023-04-03T01:33:10;8.47;;;4.67;;
1925;SDS011;964;42.606;23.588;2023-04-03T01:35:37;5.90;;;3.73;;
1925;SDS011;964;42.606;23.588;2023-04-03T01:38:04;9.57;;;4.00;;
1925;SDS011;964;42.606;23.588;2023-04-03T01:40:31;11.07;;;5.53;;
1925;SDS011;964;42.606;23.588;2023-04-03T01:42:57;10.40;;;5.47;;
1925;SDS011;964;42.606;23.588;2023-04-03T01:45:24;7.10;;;5.30;;
1925;SDS011;964;42.606;23.588;2023-04-03T01:47:51;5.93;;;4.97;;
1925;SDS011;964;42.606;23.588;2023-04-03T01:50:19;7.10;;;5.60;;
1925;SDS011;964;42.606;23.588;2023-04-03T01:52:45;10.63;;;5.40;;
1925;SDS011;964;42.606;23.588;2023-04-03T01:55:12;7.40;;;6.10;;
1925;SDS011;964;42.606;23.588;2023-04-03T01:57:40;10.43;;;5.87;;
1925;SDS011;964;42.606;23.588;2023-04-03T02:00:07;12.13;;;6.80;;
1925;SDS011;964;42.606;23.588;2023-04-03T02:02:34;7.93;;;4.93;;
1925;SDS011;964;42.606;23.588;2023-04-03T02:05:01;10.53;;;4.93;;
1925;SDS011;964;42.606;23.588;2023-04-03T02:07:29;7.30;;;5.10;;
1925;SDS011;964;42.606;23.588;2023-04-03T02:09:56;6.20;;;4.70;;
1925;SDS011;964;42.606;23.588;2023-04-03T02:12:23;9.37;;;5.90;;
1925;SDS011;964;42.606;23.588;2023-04-03T02:14:50;8.60;;;6.10;;
1925;SDS011;964;42.606;23.588;2023-04-03T02:17:16;9.70;;;5.90;;
1925;SDS011;964;42.606;23.588;2023-04-03T02:19:43;5.67;;;4.50;;
1925;SDS011;964;42.606;23.588;2023-04-03T02:22:09;4.87;;;3.93;;
1925;SDS011;964;42.606;23.588;2023-04-03T02:24:37;5.17;;;3.57;;
1925;SDS011;964;42.606;23.588;2023-04-03T02:27:05;9.03;;;3.20;;
1925;SDS011;964;42.606;23.588;2023-04-03T02:29:32;3.63;;;2.93;;
1925;SDS011;964;42.606;23.588;2023-04-03T02:31:58;3.80;;;3.00;;
1925;SDS011;964;42.606;23.588;2023-04-03T02:34:25;3.57;;;2.97;;
1925;SDS011;964;42.606;23.588;2023-04-03T02:36:52;4.03;;;2.97;;
1925;SDS011;964;42.606;23.588;2023-04-03T02:39:18;4.40;;;3.30;;
1925;SDS011;964;42.606;23.588;2023-04-03T02:41:46;3.23;;;3.00;;
1925;SDS011;964;42.606;23.588;2023-04-03T02:44:13;4.10;;;3.10;;
1925;SDS011;964;42.606;23.588;2023-04-03T02:46:40;7.03;;;3.63;;
1925;SDS011;964;42.606;23.588;2023-04-03T02:49:06;5.43;;;4.13;;
1925;SDS011;964;42.606;23.588;2023-04-03T02:51:33;3.20;;;2.93;;
1925;SDS011;964;42.606;23.588;2023-04-03T02:54:00;10.77;;;4.27;;
1925;SDS011;964;42.606;23.588;2023-04-03T02:56:26;5.13;;;4.00;;
1925;SDS011;964;42.606;23.588;2023-04-03T02:58:54;4.70;;;3.60;;
1925;SDS011;964;42.606;23.588;2023-04-03T03:01:21;5.70;;;4.03;;
1925;SDS011;964;42.606;23.588;2023-04-03T03:03:48;4.03;;;3.60;;
1925;SDS011;964;42.606;23.588;2023-04-03T03:06:15;7.00;;;3.33;;
1925;SDS011;964;42.606;23.588;2023-04-03T03:08:43;3.73;;;3.10;;
1925;SDS011;964;42.606;23.588;2023-04-03T03:11:10;5.37;;;4.63;;
1925;SDS011;964;42.606;23.588;2023-04-03T03:13:37;5.03;;;3.40;;
1925;SDS011;964;42.606;23.588;2023-04-03T03:16:06;3.80;;;3.37;;
1925;SDS011;964;42.606;23.588;2023-04-03T03:18:33;7.00;;;4.00;;
1925;SDS011;964;42.606;23.588;2023-04-03T03:21:00;4.07;;;2.60;;
1925;SDS011;964;42.606;23.588;2023-04-03T03:23:28;8.23;;;3.67;;
1925;SDS011;964;42.606;23.588;2023-04-03T03:25:57;5.63;;;2.90;;
1925;SDS011;964;42.606;23.588;2023-04-03T03:28:24;2.60;;;2.40;;
1925;SDS011;964;42.606;23.588;2023-04-03T03:30:51;4.77;;;3.00;;
1925;SDS011;964;42.606;23.588;2023-04-03T03:33:19;3.53;;;2.80;;
1925;SDS011;964;42.606;23.588;2023-04-03T03:35:46;2.73;;;2.37;;
1925;SDS011;964;42.606;23.588;2023-04-03T03:38:12;3.23;;;2.70;;
1925;SDS011;964;42.606;23.588;2023-04-03T03:40:39;8.80;;;2.97;;
1925;SDS011;964;42.606;23.588;2023-04-03T03:43:06;5.03;;;3.20;;
1925;SDS011;964;42.606;23.588;2023-04-03T03:45:32;4.20;;;2.50;;
1925;SDS011;964;42.606;23.588;2023-04-03T03:47:59;4.70;;;3.23;;
1925;SDS011;964;42.606;23.588;2023-04-03T03:50:27;5.87;;;3.33;;
1925;SDS011;964;42.606;23.588;2023-04-03T03:52:54;4.03;;;3.50;;
1925;SDS011;964;42.606;23.588;2023-04-03T03:55:21;4.23;;;2.97;;
1925;SDS011;964;42.606;23.588;2023-04-03T03:57:47;4.13;;;3.27;;
1925;SDS011;964;42.606;23.588;2023-04-03T04:00:14;6.33;;;3.20;;
1925;SDS011;964;42.606;23.588;2023-04-03T04:02:41;3.53;;;3.10;;
1925;SDS011;964;42.606;23.588;2023-04-03T04:05:09;4.57;;;3.50;;
1925;SDS011;964;42.606;23.588;2023-04-03T04:07:37;4.67;;;3.73;;
1925;SDS011;964;42.606;23.588;2023-04-03T04:10:04;5.47;;;3.70;;
1925;SDS011;964;42.606;23.588;2023-04-03T04:12:31;5.30;;;3.97;;
1925;SDS011;964;42.606;23.588;2023-04-03T04:15:00;5.23;;;3.57;;
1925;SDS011;964;42.606;23.588;2023-04-03T04:20:48;8.57;;;4.20;;
1925;SDS011;964;42.606;23.588;2023-04-03T04:23:17;7.60;;;4.73;;
1925;SDS011;964;42.606;23.588;2023-04-03T04:25:44;6.23;;;3.53;;
1925;SDS011;964;42.606;23.588;2023-04-03T04:28:11;17.00;;;4.80;;
1925;SDS011;964;42.606;23.588;2023-04-03T04:30:38;14.50;;;4.37;;
1925;SDS011;964;42.606;23.588;2023-04-03T04:33:05;6.43;;;3.87;;
1925;SDS011;964;42.606;23.588;2023-04-03T04:35:32;8.87;;;4.77;;
1925;SDS011;964;42.606;23.588;2023-04-03T04:37:58;10.70;;;4.10;;
1925;SDS011;964;42.606;23.588;2023-04-03T04:40:27;6.00;;;4.70;;
1925;SDS011;964;42.606;23.588;2023-04-03T04:42:53;12.07;;;5.30;;
1925;SDS011;964;42.606;23.588;2023-04-03T04:45:20;6.17;;;5.53;;
1925;SDS011;964;42.606;23.588;2023-04-03T04:47:47;10.07;;;6.27;;
1925;SDS011;964;42.606;23.588;2023-04-03T04:50:16;9.67;;;7.00;;
1925;SDS011;964;42.606;23.588;2023-04-03T04:52:43;9.50;;;7.20;;
1925;SDS011;964;42.606;23.588;2023-04-03T04:55:09;16.53;;;11.20;;
1925;SDS011;964;42.606;23.588;2023-04-03T04:57:38;25.83;;;17.77;;
1925;SDS011;964;42.606;23.588;2023-04-03T05:00:05;15.07;;;11.37;;
1925;SDS011;964;42.606;23.588;2023-04-03T05:02:33;17.30;;;11.83;;
1925;SDS011;964;42.606;23.588;2023-04-03T05:04:59;17.77;;;12.13;;
1925;SDS011;964;42.606;23.588;2023-04-03T05:07:26;15.77;;;11.40;;
1925;SDS011;964;42.606;23.588;2023-04-03T05:09:53;23.43;;;12.63;;
1925;SDS011;964;42.606;23.588;2023-04-03T05:12:20;72.90;;;31.10;;
1925;SDS011;964;42.606;23.588;2023-04-03T05:14:48;81.20;;;34.90;;
1925;SDS011;964;42.606;23.588;2023-04-03T05:17:15;66.90;;;32.60;;
1925;SDS011;964;42.606;23.588;2023-04-03T05:19:41;65.90;;;28.90;;
1925;SDS011;964;42.606;23.588;2023-04-03T05:22:08;59.60;;;28.90;;
1925;SDS011;964;42.606;23.588;2023-04-03T05:24:35;55.33;;;29.40;;
1925;SDS011;964;42.606;23.588;2023-04-03T05:27:02;51.00;;;25.37;;
1925;SDS011;964;42.606;23.588;2023-04-03T05:29:29;40.83;;;19.90;;
1925;SDS011;964;42.606;23.588;2023-04-03T05:31:57;28.20;;;15.07;;
1925;SDS011;964;42.606;23.588;2023-04-03T05:34:24;23.17;;;11.17;;
1925;SDS011;964;42.606;23.588;2023-04-03T05:36:50;10.40;;;6.20;;
1925;SDS011;964;42.606;23.588;2023-04-03T05:39:18;5.50;;;4.40;;
1925;SDS011;964;42.606;23.588;2023-04-03T05:41:44;7.27;;;5.37;;
1925;SDS011;964;42.606;23.588;2023-04-03T05:44:11;5.50;;;4.80;;
1925;SDS011;964;42.606;23.588;2023-04-03T05:46:38;5.90;;;5.30;;
1925;SDS011;964;42.606;23.588;2023-04-03T05:49:06;7.10;;;4.97;;
1925;SDS011;964;42.606;23.588;2023-04-03T05:51:33;5.57;;;5.00;;
1925;SDS011;964;42.606;23.588;2023-04-03T05:54:03;7.73;;;5.23;;
1925;SDS011;964;42.606;23.588;2023-04-03T05:56:36;6.47;;;5.07;;
1925;SDS011;964;42.606;23.588;2023-04-03T05:59:02;5.63;;;4.60;;
1925;SDS011;964;42.606;23.588;2023-04-03T06:01:29;5.23;;;4.53;;
1925;SDS011;964;42.606;23.588;2023-04-03T06:03:56;5.40;;;4.90;;
1925;SDS011;964;42.606;23.588;2023-04-03T06:06:25;5.87;;;4.70;;
1925;SDS011;964;42.606;23.588;2023-04-03T06:08:51;5.57;;;4.77;;
1925;SDS011;964;42.606;23.588;2023-04-03T06:11:18;5.47;;;4.53;;
1925;SDS011;964;42.606;23.588;2023-04-03T06:13:46;5.40;;;4.87;;
1925;SDS011;964;42.606;23.588;2023-04-03T06:16:13;6.23;;;4.90;;
1925;SDS011;964;42.606;23.588;2023-04-03T06:18:41;6.03;;;5.30;;
1925;SDS011;964;42.606;23.588;2023-04-03T06:21:07;6.63;;;5.37;;
1925;SDS011;964;42.606;23.588;2023-04-03T06:23:36;5.93;;;5.33;;
1925;SDS011;964;42.606;23.588;2023-04-03T06:26:02;6.00;;;5.03;;
1925;SDS011;964;42.606;23.588;2023-04-03T06:28:30;8.30;;;4.80;;
1925;SDS011;964;42.606;23.588;2023-04-03T06:30:57;7.80;;;5.77;;
1925;SDS011;964;42.606;23.588;2023-04-03T06:33:24;6.70;;;5.20;;
1925;SDS011;964;42.606;23.588;2023-04-03T06:35:55;5.93;;;5.20;;
1925;SDS011;964;42.606;23.588;2023-04-03T06:38:23;8.07;;;5.40;;
1925;SDS011;964;42.606;23.588;2023-04-03T06:40:51;6.13;;;5.50;;
1925;SDS011;964;42.606;23.588;2023-04-03T06:43:18;5.30;;;4.50;;
1925;SDS011;964;42.606;23.588;2023-04-03T06:45:45;6.10;;;5.50;;
1925;SDS011;964;42.606;23.588;2023-04-03T06:48:12;5.30;;;4.80;;
1925;SDS011;964;42.606;23.588;2023-04-03T06:50:40;5.80;;;4.83;;
1925;SDS011;964;42.606;23.588;2023-04-03T06:53:07;5.40;;;4.90;;
1925;SDS011;964;42.606;23.588;2023-04-03T06:55:34;5.50;;;4.83;;
1925;SDS011;964;42.606;23.588;2023-04-03T06:58:02;5.40;;;4.53;;
1925;SDS011;964;42.606;23.588;2023-04-03T07:00:29;7.97;;;4.77;;
1925;SDS011;964;42.606;23.588;2023-04-03T07:02:56;6.80;;;4.57;;
1925;SDS011;964;42.606;23.588;2023-04-03T07:05:23;8.90;;;4.77;;
1925;SDS011;964;42.606;23.588;2023-04-03T07:07:50;6.37;;;4.83;;
1925;SDS011;964;42.606;23.588;2023-04-03T07:10:17;4.73;;;4.33;;
1925;SDS011;964;42.606;23.588;2023-04-03T07:12:44;5.93;;;4.00;;
1925;SDS011;964;42.606;23.588;2023-04-03T07:15:13;4.97;;;4.43;;
1925;SDS011;964;42.606;23.588;2023-04-03T07:17:40;6.30;;;4.33;;
1925;SDS011;964;42.606;23.588;2023-04-03T07:20:07;5.40;;;4.57;;
1925;SDS011;964;42.606;23.588;2023-04-03T07:22:34;6.37;;;4.30;;
1925;SDS011;964;42.606;23.588;2023-04-03T07:25:01;5.67;;;4.67;;
1925;SDS011;964;42.606;23.588;2023-04-03T07:27:28;4.60;;;3.97;;
1925;SDS011;964;42.606;23.588;2023-04-03T07:29:55;6.87;;;4.53;;
1925;SDS011;964;42.606;23.588;2023-04-03T07:32:23;5.20;;;4.70;;
1925;SDS011;964;42.606;23.588;2023-04-03T07:34:50;6.93;;;4.90;;
1925;SDS011;964;42.606;23.588;2023-04-03T07:37:17;6.97;;;5.50;;
1925;SDS011;964;42.606;23.588;2023-04-03T07:39:44;7.50;;;5.70;;
1925;SDS011;964;42.606;23.588;2023-04-03T07:42:11;13.50;;;6.50;;
1925;SDS011;964;42.606;23.588;2023-04-03T07:44:38;12.63;;;7.67;;
1925;SDS011;964;42.606;23.588;2023-04-03T07:47:05;11.17;;;8.80;;
1925;SDS011;964;42.606;23.588;2023-04-03T07:49:34;13.70;;;7.73;;
1925;SDS011;964;42.606;23.588;2023-04-03T07:52:04;11.33;;;9.40;;
1925;SDS011;964;42.606;23.588;2023-04-03T07:54:32;19.40;;;12.70;;
1925;SDS011;964;42.606;23.588;2023-04-03T07:57:00;11.63;;;7.07;;
1925;SDS011;964;42.606;23.588;2023-04-03T07:59:26;8.40;;;7.20;;
1925;SDS011;964;42.606;23.588;2023-04-03T08:01:53;10.93;;;7.23;;
1925;SDS011;964;42.606;23.588;2023-04-03T08:04:20;9.10;;;7.27;;
1925;SDS011;964;42.606;23.588;2023-04-03T08:06:48;8.50;;;7.00;;
1925;SDS011;964;42.606;23.588;2023-04-03T08:09:16;10.57;;;7.13;;
1925;SDS011;964;42.606;23.588;2023-04-03T08:11:43;9.70;;;8.03;;
1925;SDS011;964;42.606;23.588;2023-04-03T08:14:10;11.67;;;8.47;;
1925;SDS011;964;42.606;23.588;2023-04-03T08:16:41;10.47;;;8.23;;
1925;SDS011;964;42.606;23.588;2023-04-03T08:19:09;10.60;;;9.10;;
1925;SDS011;964;42.606;23.588;2023-04-03T08:21:39;10.20;;;7.60;;
1925;SDS011;964;42.606;23.588;2023-04-03T08:24:07;13.60;;;7.40;;
1925;SDS011;964;42.606;23.588;2023-04-03T08:26:35;7.50;;;6.77;;
1925;SDS011;964;42.606;23.588;2023-04-03T08:29:02;6.57;;;5.90;;
1925;SDS011;964;42.606;23.588;2023-04-03T08:31:29;7.13;;;6.43;;
1925;SDS011;964;42.606;23.588;2023-04-03T08:33:56;6.30;;;5.20;;
1925;SDS011;964;42.606;23.588;2023-04-03T08:36:24;6.30;;;5.70;;
1925;SDS011;964;42.606;23.588;2023-04-03T08:38:52;6.77;;;5.23;;
1925;SDS011;964;42.606;23.588;2023-04-03T08:41:25;6.40;;;5.60;;
1925;SDS011;964;42.606;23.588;2023-04-03T08:43:58;7.27;;;5.97;;
1925;SDS011;964;42.606;23.588;2023-04-03T08:46:32;7.30;;;5.60;;
1925;SDS011;964;42.606;23.588;2023-04-03T08:49:07;8.20;;;6.60;;
1925;SDS011;964;42.606;23.588;2023-04-03T08:51:42;13.73;;;5.30;;
1925;SDS011;964;42.606;23.588;2023-04-03T08:54:14;6.47;;;4.83;;
1925;SDS011;964;42.606;23.588;2023-04-03T08:56:51;6.20;;;5.43;;
1925;SDS011;964;42.606;23.588;2023-04-03T08:59:19;6.70;;;5.07;;
1925;SDS011;964;42.606;23.588;2023-04-03T09:01:53;4.63;;;4.23;;
1925;SDS011;964;42.606;23.588;2023-04-03T09:04:22;5.37;;;4.43;;
1925;SDS011;964;42.606;23.588;2023-04-03T09:06:50;5.67;;;5.10;;
1925;SDS011;964;42.606;23.588;2023-04-03T09:09:24;5.27;;;4.77;;
1925;SDS011;964;42.606;23.588;2023-04-03T09:12:03;5.17;;;4.30;;
1925;SDS011;964;42.606;23.588;2023-04-03T09:14:38;5.37;;;4.50;;
1925;SDS011;964;42.606;23.588;2023-04-03T09:17:12;6.63;;;4.50;;
1925;SDS011;964;42.606;23.588;2023-04-03T09:19:47;7.77;;;5.33;;
1925;SDS011;964;42.606;23.588;2023-04-03T09:22:21;5.70;;;5.10;;
1925;SDS011;964;42.606;23.588;2023-04-03T09:24:55;6.70;;;5.07;;
1925;SDS011;964;42.606;23.588;2023-04-03T09:27:28;6.13;;;4.53;;
1925;SDS011;964;42.606;23.588;2023-04-03T09:29:58;3.83;;;3.50;;
1925;SDS011;964;42.606;23.588;2023-04-03T09:32:26;4.87;;;3.60;;
1925;SDS011;964;42.606;23.588;2023-04-03T09:34:55;7.03;;;3.70;;
1925;SDS011;964;42.606;23.588;2023-04-03T09:37:35;5.80;;;4.60;;
1925;SDS011;964;42.606;23.588;2023-04-03T09:40:04;4.37;;;3.97;;
1925;SDS011;964;42.606;23.588;2023-04-03T09:42:34;6.20;;;3.90;;
1925;SDS011;964;42.606;23.588;2023-04-03T09:45:18;4.67;;;3.60;;
1925;SDS011;964;42.606;23.588;2023-04-03T09:47:49;3.43;;;3.13;;
1925;SDS011;964;42.606;23.588;2023-04-03T09:50:31;7.40;;;5.03;;
1925;SDS011;964;42.606;23.588;2023-04-03T09:52:59;4.00;;;3.60;;
1925;SDS011;964;42.606;23.588;2023-04-03T09:55:31;4.07;;;3.20;;
1925;SDS011;964;42.606;23.588;2023-04-03T09:58:00;7.20;;;3.70;;
1925;SDS011;964;42.606;23.588;2023-04-03T10:00:30;4.03;;;3.50;;
1925;SDS011;964;42.606;23.588;2023-04-03T10:03:00;4.07;;;3.43;;
1925;SDS011;964;42.606;23.588;2023-04-03T10:05:32;4.10;;;3.70;;
1925;SDS011;964;42.606;23.588;2023-04-03T10:08:08;5.07;;;3.80;;
1925;SDS011;964;42.606;23.588;2023-04-03T10:10:37;4.97;;;3.87;;
1925;SDS011;964;42.606;23.588;2023-04-03T10:13:07;4.20;;;3.80;;
1925;SDS011;964;42.606;23.588;2023-04-03T10:15:39;5.67;;;3.90;;
1925;SDS011;964;42.606;23.588;2023-04-03T10:18:16;5.53;;;3.80;;
1925;SDS011;964;42.606;23.588;2023-04-03T10:20:53;4.77;;;3.90;;
1925;SDS011;964;42.606;23.588;2023-04-03T10:23:24;5.33;;;4.00;;
1925;SDS011;964;42.606;23.588;2023-04-03T10:26:00;4.40;;;3.50;;
1925;SDS011;964;42.606;23.588;2023-04-03T10:28:38;6.50;;;3.70;;
1925;SDS011;964;42.606;23.588;2023-04-03T10:31:15;8.50;;;4.80;;
1925;SDS011;964;42.606;23.588;2023-04-03T10:33:50;5.90;;;5.20;;
1925;SDS011;964;42.606;23.588;2023-04-03T10:36:25;6.10;;;5.43;;
1925;SDS011;964;42.606;23.588;2023-04-03T10:39:02;6.60;;;4.87;;
1925;SDS011;964;42.606;23.588;2023-04-03T10:41:39;8.60;;;6.63;;
1925;SDS011;964;42.606;23.588;2023-04-03T10:44:20;11.10;;;7.07;;
1925;SDS011;964;42.606;23.588;2023-04-03T10:46:57;13.40;;;8.30;;
1925;SDS011;964;42.606;23.588;2023-04-03T10:49:34;17.87;;;12.30;;
1925;SDS011;964;42.606;23.588;2023-04-03T10:52:12;17.63;;;12.37;;
1925;SDS011;964;42.606;23.588;2023-04-03T10:54:45;26.13;;;17.47;;
1925;SDS011;964;42.606;23.588;2023-04-03T10:57:15;24.53;;;15.67;;
1925;SDS011;964;42.606;23.588;2023-04-03T10:59:45;18.33;;;13.00;;
1925;SDS011;964;42.606;23.588;2023-04-03T11:02:16;14.00;;;9.87;;
1925;SDS011;964;42.606;23.588;2023-04-03T11:04:51;21.27;;;14.50;;
1925;SDS011;964;42.606;23.588;2023-04-03T11:07:23;15.43;;;12.43;;
1925;SDS011;964;42.606;23.588;2023-04-03T11:09:52;22.87;;;14.07;;
1925;SDS011;964;42.606;23.588;2023-04-03T11:12:24;18.80;;;13.20;;
1925;SDS011;964;42.606;23.588;2023-04-03T11:15:03;23.50;;;16.37;;
1925;SDS011;964;42.606;23.588;2023-04-03T11:17:31;15.10;;;10.27;;
1925;SDS011;964;42.606;23.588;2023-04-03T11:20:04;10.23;;;8.20;;
1925;SDS011;964;42.606;23.588;2023-04-03T11:22:36;8.63;;;6.90;;
1925;SDS011;964;42.606;23.588;2023-04-03T11:25:13;7.37;;;6.30;;
1925;SDS011;964;42.606;23.588;2023-04-03T11:27:46;6.10;;;5.50;;
1925;SDS011;964;42.606;23.588;2023-04-03T11:30:19;6.50;;;5.80;;
1925;SDS011;964;42.606;23.588;2023-04-03T11:36:12;7.23;;;5.73;;
1925;SDS011;964;42.606;23.588;2023-04-03T11:38:47;14.73;;;7.20;;
1925;SDS011;964;42.606;23.588;2023-04-03T11:41:17;8.10;;;6.50;;
1925;SDS011;964;42.606;23.588;2023-04-03T11:43:56;8.77;;;7.30;;
1925;SDS011;964;42.606;23.588;2023-04-03T11:52:54;11.37;;;8.80;;
1925;SDS011;964;42.606;23.588;2023-04-03T11:58:12;13.53;;;9.33;;
1925;SDS011;964;42.606;23.588;2023-04-03T12:00:51;14.87;;;11.00;;
1925;SDS011;964;42.606;23.588;2023-04-03T12:03:31;12.50;;;8.43;;
1925;SDS011;964;42.606;23.588;2023-04-03T12:09:27;6.80;;;5.37;;
1925;SDS011;964;42.606;23.588;2023-04-03T12:21:20;4.30;;;3.10;;
1925;SDS011;964;42.606;23.588;2023-04-03T12:24:01;9.17;;;6.80;;
1925;SDS011;964;42.606;23.588;2023-04-03T12:26:31;4.60;;;3.97;;
1925;SDS011;964;42.606;23.588;2023-04-03T12:29:02;3.70;;;3.33;;
1925;SDS011;964;42.606;23.588;2023-04-03T12:31:42;3.40;;;2.70;;
1925;SDS011;964;42.606;23.588;2023-04-03T12:34:26;7.13;;;4.87;;
1925;SDS011;964;42.606;23.588;2023-04-03T12:37:16;11.70;;;7.13;;
1925;SDS011;964;42.606;23.588;2023-04-03T12:39:53;19.40;;;9.77;;
1925;SDS011;964;42.606;23.588;2023-04-03T12:45:29;11.60;;;6.60;;
1925;SDS011;964;42.606;23.588;2023-04-03T12:48:08;9.07;;;5.40;;
1925;SDS011;964;42.606;23.588;2023-04-03T12:50:41;7.17;;;5.10;;
1925;SDS011;964;42.606;23.588;2023-04-03T12:53:12;5.40;;;4.20;;
1925;SDS011;964;42.606;23.588;2023-04-03T12:55:42;24.53;;;12.13;;
1925;SDS011;964;42.606;23.588;2023-04-03T12:58:21;11.07;;;5.93;;
1925;SDS011;964;42.606;23.588;2023-04-03T13:00:58;8.37;;;6.10;;
1925;SDS011;964;42.606;23.588;2023-04-03T13:03:29;8.07;;;5.93;;
1925;SDS011;964;42.606;23.588;2023-04-03T13:05:58;7.23;;;5.40;;
1925;SDS011;964;42.606;23.588;2023-04-03T13:08:27;6.33;;;4.80;;
1925;SDS011;964;42.606;23.588;2023-04-03T13:10:55;7.07;;;6.30;;
1925;SDS011;964;42.606;23.588;2023-04-03T13:13:25;12.63;;;9.10;;
1925;SDS011;964;42.606;23.588;2023-04-03T13:15:52;6.97;;;6.10;;
1925;SDS011;964;42.606;23.588;2023-04-03T13:18:27;4.97;;;4.47;;
1925;SDS011;964;42.606;23.588;2023-04-03T13:20:58;8.77;;;6.53;;
1925;SDS011;964;42.606;23.588;2023-04-03T13:23:29;10.23;;;6.73;;
1925;SDS011;964;42.606;23.588;2023-04-03T13:25:58;7.43;;;6.47;;
1925;SDS011;964;42.606;23.588;2023-04-03T13:28:28;10.37;;;8.37;;
1925;SDS011;964;42.606;23.588;2023-04-03T13:30:58;14.40;;;10.00;;
1925;SDS011;964;42.606;23.588;2023-04-03T13:33:30;17.60;;;11.50;;
1925;SDS011;964;42.606;23.588;2023-04-03T13:36:02;17.80;;;12.47;;
1925;SDS011;964;42.606;23.588;2023-04-03T13:38:31;23.20;;;16.83;;
1925;SDS011;964;42.606;23.588;2023-04-03T13:41:02;25.87;;;14.17;;
1925;SDS011;964;42.606;23.588;2023-04-03T13:43:32;25.83;;;15.43;;
1925;SDS011;964;42.606;23.588;2023-04-03T13:46:03;23.43;;;16.40;;
1925;SDS011;964;42.606;23.588;2023-04-03T13:48:36;20.97;;;14.30;;
1925;SDS011;964;42.606;23.588;2023-04-03T13:51:16;20.77;;;14.30;;
1925;SDS011;964;42.606;23.588;2023-04-03T13:53:47;11.57;;;8.43;;
1925;SDS011;964;42.606;23.588;2023-04-03T13:56:19;14.87;;;9.33;;
1925;SDS011;964;42.606;23.588;2023-04-03T13:58:58;15.50;;;11.13;;
1925;SDS011;964;42.606;23.588;2023-04-03T14:04:18;16.30;;;9.77;;
1925;SDS011;964;42.606;23.588;2023-04-03T14:06:48;16.13;;;10.53;;
1925;SDS011;964;42.606;23.588;2023-04-03T14:09:17;14.73;;;11.43;;
1925;SDS011;964;42.606;23.588;2023-04-03T14:11:45;16.40;;;11.90;;
1925;SDS011;964;42.606;23.588;2023-04-03T14:14:14;16.10;;;12.57;;
1925;SDS011;964;42.606;23.588;2023-04-03T14:16:45;21.60;;;12.80;;
1925;SDS011;964;42.606;23.588;2023-04-03T14:19:16;31.10;;;18.00;;
1925;SDS011;964;42.606;23.588;2023-04-03T14:21:45;33.13;;;21.00;;
1925;SDS011;964;42.606;23.588;2023-04-03T14:24:15;25.37;;;14.53;;
1925;SDS011;964;42.606;23.588;2023-04-03T14:26:42;25.63;;;14.23;;
1925;SDS011;964;42.606;23.588;2023-04-03T14:29:10;27.43;;;15.60;;
1925;SDS011;964;42.606;23.588;2023-04-03T14:31:38;14.10;;;8.07;;
1925;SDS011;964;42.606;23.588;2023-04-03T14:34:05;15.90;;;5.57;;
1925;SDS011;964;42.606;23.588;2023-04-03T14:36:32;10.40;;;6.67;;
1925;SDS011;964;42.606;23.588;2023-04-03T14:39:00;10.90;;;9.00;;
1925;SDS011;964;42.606;23.588;2023-04-03T14:41:28;14.30;;;8.70;;
1925;SDS011;964;42.606;23.588;2023-04-03T14:43:55;14.17;;;7.50;;
1925;SDS011;964;42.606;23.588;2023-04-03T14:46:23;13.80;;;9.43;;
1925;SDS011;964;42.606;23.588;2023-04-03T14:48:52;14.67;;;8.87;;
1925;SDS011;964;42.606;23.588;2023-04-03T14:51:20;9.57;;;6.60;;
1925;SDS011;964;42.606;23.588;2023-04-03T14:53:46;8.50;;;6.03;;
1925;SDS011;964;42.606;23.588;2023-04-03T14:56:18;7.70;;;5.87;;
1925;SDS011;964;42.606;23.588;2023-04-03T14:58:48;10.00;;;6.80;;
1925;SDS011;964;42.606;23.588;2023-04-03T15:01:24;15.20;;;8.73;;
1925;SDS011;964;42.606;23.588;2023-04-03T15:03:51;20.13;;;11.77;;
1925;SDS011;964;42.606;23.588;2023-04-03T15:06:18;14.20;;;9.37;;
1925;SDS011;964;42.606;23.588;2023-04-03T15:08:45;22.03;;;13.00;;
1925;SDS011;964;42.606;23.588;2023-04-03T15:11:13;23.67;;;14.37;;
1925;SDS011;964;42.606;23.588;2023-04-03T15:13:42;18.60;;;13.10;;
1925;SDS011;964;42.606;23.588;2023-04-03T15:16:12;23.53;;;15.77;;
1925;SDS011;964;42.606;23.588;2023-04-03T15:18:41;32.17;;;17.90;;
1925;SDS011;964;42.606;23.588;2023-04-03T15:21:09;35.40;;;20.20;;
1925;SDS011;964;42.606;23.588;2023-04-03T15:23:35;64.10;;;29.00;;
1925;SDS011;964;42.606;23.588;2023-04-03T15:26:02;79.33;;;44.00;;
1925;SDS011;964;42.606;23.588;2023-04-03T15:28:31;28.40;;;21.30;;
1925;SDS011;964;42.606;23.588;2023-04-03T15:31:03;11.83;;;10.63;;
1925;SDS011;964;42.606;23.588;2023-04-03T15:33:30;9.30;;;6.83;;
1925;SDS011;964;42.606;23.588;2023-04-03T15:35:58;18.90;;;10.23;;
1925;SDS011;964;42.606;23.588;2023-04-03T15:38:31;17.53;;;10.10;;
1925;SDS011;964;42.606;23.588;2023-04-03T15:40:58;13.27;;;7.83;;
1925;SDS011;964;42.606;23.588;2023-04-03T15:43:25;19.37;;;11.40;;
1925;SDS011;964;42.606;23.588;2023-04-03T15:45:52;13.13;;;9.70;;
1925;SDS011;964;42.606;23.588;2023-04-03T15:48:23;17.70;;;15.50;;
1925;SDS011;964;42.606;23.588;2023-04-03T15:50:50;17.30;;;13.97;;
1925;SDS011;964;42.606;23.588;2023-04-03T15:53:17;15.77;;;12.50;;
1925;SDS011;964;42.606;23.588;2023-04-03T15:55:44;14.20;;;11.60;;
1925;SDS011;964;42.606;23.588;2023-04-03T15:58:11;11.83;;;9.07;;
1925;SDS011;964;42.606;23.588;2023-04-03T16:00:38;9.63;;;8.63;;